Terminal Aerodrome Forecast
Issued by NWS Greer, SC

Home | Current Version | Previous Version | Text Only | Print | Product List | Glossary On
Versions: 1 2 3 4 5 6 7 8 9 10 11 12 13 14 15 16 17 18 19 20 21 22 23 24 25 26 27 28 29 30
000
FTUS42 KGSP 072103 AAA
TAFCLT
TAF AMD
KCLT 072103Z 0721/0818 18005KT P6SM BKN045
     FM072300 16004KT P6SM BKN025
     FM080700 14003KT 5SM BR SCT007 OVC025
     FM081400 32005KT P6SM OVC040=

USA.gov is the U.S. government's official web portal to all federal, state and local government web resources and services.